createdAt,value
2017-06-05T00:00:42.342Z,0
2017-06-05T00:01:54.293Z,0
2017-06-05T00:03:06.816Z,0
2017-06-05T00:04:19.013Z,0
2017-06-05T00:05:31.559Z,0
2017-06-05T00:06:44.086Z,0
2017-06-05T00:07:56.625Z,0
2017-06-05T00:09:08.568Z,0
2017-06-05T00:10:21.091Z,0
2017-06-05T00:11:32.737Z,0
2017-06-05T00:12:45.261Z,0
2017-06-05T00:13:57.805Z,0
2017-06-05T00:15:10.051Z,0
2017-06-05T00:16:22.571Z,0
2017-06-05T00:17:35.114Z,0
2017-06-05T00:18:47.035Z,0
2017-06-05T00:19:59.260Z,0
2017-06-05T00:21:11.795Z,0
2017-06-05T00:22:24.052Z,0
2017-06-05T00:23:36.585Z,0
2017-06-05T00:24:48.218Z,0
2017-06-05T00:26:00.457Z,0
2017-06-05T00:27:12.982Z,0
2017-06-05T00:28:25.484Z,0
2017-06-05T00:29:37.991Z,0
2017-06-05T00:30:50.519Z,0
2017-06-05T00:32:03.046Z,0
2017-06-05T00:33:15.296Z,0
2017-06-05T00:34:27.828Z,0
2017-06-05T00:35:40.374Z,0
2017-06-05T00:36:51.994Z,0
2017-06-05T00:38:04.220Z,0
2017-06-05T00:39:16.773Z,0
2017-06-05T00:40:29.008Z,0
2017-06-05T00:41:41.539Z,0
2017-06-05T00:42:54.078Z,0
2017-06-05T00:44:06.616Z,0
2017-06-05T00:45:18.913Z,0
2017-06-05T00:46:31.472Z,0
2017-06-05T00:47:44.007Z,0
2017-06-05T00:48:56.553Z,0
2017-06-05T00:50:08.832Z,0
2017-06-05T00:51:21.078Z,0
2017-06-05T00:52:33.598Z,0
2017-06-05T00:53:45.257Z,0
2017-06-05T00:54:57.767Z,0
2017-06-05T00:56:09.683Z,0
2017-06-05T00:57:21.673Z,0
2017-06-05T00:58:34.225Z,0
2017-06-05T00:59:46.749Z,0
2017-06-05T01:00:58.986Z,0
2017-06-05T01:02:11.546Z,0
2017-06-05T01:03:24.086Z,0
2017-06-05T01:04:36.583Z,0
2017-06-05T01:05:49.103Z,0
2017-06-05T01:07:01.622Z,0
2017-06-05T01:08:14.147Z,0
2017-06-05T01:09:26.389Z,0
2017-06-05T01:10:38.912Z,0
2017-06-05T01:11:51.430Z,0
2017-06-05T01:13:03.956Z,0
2017-06-05T01:14:16.500Z,0
2017-06-05T01:15:28.740Z,0
2017-06-05T01:16:40.999Z,0
2017-06-05T01:17:53.531Z,0
2017-06-05T01:19:06.055Z,0
2017-06-05T01:20:17.969Z,0
2017-06-05T01:21:30.502Z,0
2017-06-05T01:22:43.022Z,0
2017-06-05T01:23:55.272Z,0
2017-06-05T01:25:07.839Z,0
2017-06-05T01:26:20.359Z,0
2017-06-05T01:27:32.881Z,0
2017-06-05T01:28:45.143Z,0
2017-06-05T01:29:57.375Z,0
2017-06-05T01:31:09.919Z,0
2017-06-05T01:32:22.115Z,0
2017-06-05T01:33:34.054Z,0
2017-06-05T01:34:46.603Z,0
2017-06-05T01:35:59.138Z,0
2017-06-05T01:37:11.345Z,0
2017-06-05T01:38:23.541Z,0
2017-06-05T01:39:36.090Z,0
2017-06-05T01:40:48.638Z,0
2017-06-05T01:42:00.853Z,0
2017-06-05T01:43:13.078Z,0
2017-06-05T01:44:25.615Z,0
2017-06-05T01:45:37.841Z,0
2017-06-05T01:46:50.061Z,0
2017-06-05T01:48:01.986Z,0
2017-06-05T01:49:13.923Z,0
2017-06-05T01:50:26.452Z,0
2017-06-05T01:51:38.988Z,0
2017-06-05T01:52:51.537Z,0
2017-06-05T01:54:04.067Z,0
2017-06-05T01:55:16.305Z,0
2017-06-05T01:56:28.856Z,0
2017-06-05T01:57:41.403Z,0
2017-06-05T01:58:53.947Z,0
2017-06-05T02:00:06.170Z,0
2017-06-05T02:01:18.121Z,0
2017-06-05T02:02:30.660Z,0
2017-06-05T02:03:43.209Z,0
2017-06-05T02:04:55.472Z,0
2017-06-05T02:06:07.996Z,4
2017-06-05T02:07:20.521Z,4
2017-06-05T02:08:32.738Z,0
2017-06-05T02:09:45.264Z,0
2017-06-05T02:10:57.823Z,0
2017-06-05T02:12:10.355Z,0
2017-06-05T02:13:22.933Z,0
2017-06-05T02:14:35.471Z,4
2017-06-05T02:15:47.714Z,4
2017-06-05T02:16:59.953Z,0
2017-06-05T02:18:12.186Z,4
2017-06-05T02:19:24.731Z,4
2017-06-05T02:20:37.269Z,4
2017-06-05T02:21:49.798Z,8
2017-06-05T02:23:02.357Z,12
2017-06-05T02:24:14.877Z,12
2017-06-05T02:25:27.427Z,16
2017-06-05T02:26:39.931Z,20
2017-06-05T02:27:52.491Z,24
2017-06-05T02:29:04.723Z,28
2017-06-05T02:30:17.011Z,28
2017-06-05T02:31:29.539Z,36
2017-06-05T02:32:42.085Z,40
2017-06-05T02:33:54.652Z,52
2017-06-05T02:35:06.877Z,60
2017-06-05T02:36:19.437Z,72
2017-06-05T02:37:32.011Z,84
2017-06-05T02:38:44.241Z,88
2017-06-05T02:39:56.463Z,96
2017-06-05T02:41:08.108Z,104
2017-06-05T02:42:20.351Z,112
2017-06-05T02:43:32.874Z,112
2017-06-05T02:44:45.401Z,116
2017-06-05T02:45:57.954Z,124
2017-06-05T02:47:10.208Z,148
2017-06-05T02:48:22.457Z,180
2017-06-05T02:49:34.950Z,224
2017-06-05T02:50:46.878Z,268
2017-06-05T02:51:59.398Z,320
2017-06-05T02:53:11.942Z,376
2017-06-05T02:54:24.505Z,436
2017-06-05T02:55:37.007Z,496
2017-06-05T02:56:49.550Z,544
2017-06-05T02:58:02.099Z,572
2017-06-05T02:59:14.642Z,576
2017-06-05T03:00:26.863Z,544
2017-06-05T03:01:39.404Z,516
2017-06-05T03:02:51.673Z,528
2017-06-05T03:04:04.203Z,544
2017-06-05T03:05:16.971Z,512
2017-06-05T03:06:29.493Z,448
2017-06-05T03:07:41.717Z,412
2017-06-05T03:08:54.255Z,412
2017-06-05T03:10:06.809Z,444
2017-06-05T03:11:19.055Z,480
2017-06-05T03:12:31.301Z,496
2017-06-05T03:13:43.848Z,516
2017-06-05T03:14:56.389Z,548
2017-06-05T03:16:08.603Z,632
2017-06-05T03:17:21.136Z,732
2017-06-05T03:18:33.677Z,828
2017-06-05T03:19:46.203Z,892
2017-06-05T03:20:58.448Z,940
2017-06-05T03:22:10.985Z,1016
2017-06-05T03:23:23.515Z,1124
2017-06-05T03:24:35.762Z,1176
2017-06-05T03:25:48.323Z,1220
2017-06-05T03:27:00.551Z,1292
2017-06-05T03:28:12.775Z,1260
2017-06-05T03:29:25.315Z,1180
2017-06-05T03:30:37.838Z,1092
2017-06-05T03:31:50.057Z,1044
2017-06-05T03:33:02.582Z,1028
2017-06-05T03:34:15.104Z,988
2017-06-05T03:35:27.620Z,964
2017-06-05T03:36:40.161Z,944
2017-06-05T03:37:52.691Z,892
2017-06-05T03:39:05.250Z,896
2017-06-05T03:40:17.778Z,900
2017-06-05T03:41:30.020Z,892
2017-06-05T03:42:42.548Z,916
2017-06-05T03:43:54.792Z,940
2017-06-05T03:45:07.016Z,1092
2017-06-05T03:46:19.564Z,1328
2017-06-05T03:47:31.809Z,1456
2017-06-05T03:48:44.054Z,1384
2017-06-05T03:49:56.295Z,1308
2017-06-05T03:51:08.516Z,1296
2017-06-05T03:52:20.484Z,1488
2017-06-05T03:53:32.751Z,1720
2017-06-05T03:54:45.279Z,1916
2017-06-05T03:55:57.503Z,2040
2017-06-05T03:57:09.721Z,2016
2017-06-05T03:58:22.263Z,2060
2017-06-05T03:59:34.818Z,2196
2017-06-05T04:00:47.354Z,2392
2017-06-05T04:01:59.596Z,2476
2017-06-05T04:03:11.854Z,2500
2017-06-05T04:04:24.401Z,2584
2017-06-05T04:05:36.645Z,2828
2017-06-05T04:06:49.218Z,3208
2017-06-05T04:08:01.464Z,3668
2017-06-05T04:09:13.724Z,3996
2017-06-05T04:10:26.225Z,4108
2017-06-05T04:11:38.463Z,4180
2017-06-05T04:12:50.993Z,4124
2017-06-05T04:14:03.539Z,4068
2017-06-05T04:15:16.064Z,4108
2017-06-05T04:16:28.861Z,4280
2017-06-05T04:17:41.406Z,4680
2017-06-05T04:18:53.955Z,4992
2017-06-05T04:20:06.497Z,5332
2017-06-05T04:21:19.332Z,5384
2017-06-05T04:22:31.834Z,5280
2017-06-05T04:23:44.378Z,5096
2017-06-05T04:24:56.927Z,4848
2017-06-05T04:26:09.143Z,4592
2017-06-05T04:27:21.099Z,4396
2017-06-05T04:28:33.624Z,4056
2017-06-05T04:29:45.860Z,3708
2017-06-05T04:30:58.383Z,3288
2017-06-05T04:32:11.178Z,3120
2017-06-05T04:33:23.756Z,3180
2017-06-05T04:34:36.016Z,3244
2017-06-05T04:35:48.515Z,3456
2017-06-05T04:37:00.441Z,3868
2017-06-05T04:38:12.685Z,4496
2017-06-05T04:39:25.233Z,4860
2017-06-05T04:40:37.799Z,5004
2017-06-05T04:41:50.324Z,5388
2017-06-05T04:43:02.866Z,5684
2017-06-05T04:44:15.406Z,5908
2017-06-05T04:45:27.661Z,6432
2017-06-05T04:46:39.907Z,7076
2017-06-05T04:47:52.471Z,7536
2017-06-05T04:49:04.743Z,7944
2017-06-05T04:50:17.267Z,8488
2017-06-05T04:51:29.791Z,8960
2017-06-05T04:52:42.354Z,9780
2017-06-05T04:53:54.905Z,11480
2017-06-05T04:55:07.429Z,12852
2017-06-05T04:56:19.974Z,12888
2017-06-05T04:57:32.520Z,11972
2017-06-05T04:58:45.106Z,11320
2017-06-05T04:59:57.638Z,11624
2017-06-05T05:01:09.896Z,11568
2017-06-05T05:02:22.126Z,11536
2017-06-05T05:03:34.088Z,11676
2017-06-05T05:04:46.344Z,12436
2017-06-05T05:05:58.863Z,12908
2017-06-05T05:07:11.365Z,12948
2017-06-05T05:08:23.312Z,12896
2017-06-05T05:09:35.855Z,12872
2017-06-05T05:10:48.399Z,13544
2017-06-05T05:12:00.620Z,14788
2017-06-05T05:13:13.163Z,15692
2017-06-05T05:14:25.404Z,17888
2017-06-05T05:15:37.605Z,19456
2017-06-05T05:16:49.826Z,21120
2017-06-05T05:18:02.050Z,23040
2017-06-05T05:19:14.298Z,25600
2017-06-05T05:20:26.564Z,24480
2017-06-05T05:21:39.089Z,22304
2017-06-05T05:22:51.609Z,22656
2017-06-05T05:24:04.156Z,23616
2017-06-05T05:25:16.399Z,20032
2017-06-05T05:26:28.661Z,17472
2017-06-05T05:27:41.214Z,15036
2017-06-05T05:28:53.735Z,14000
2017-06-05T05:30:05.660Z,13304
2017-06-05T05:31:18.222Z,13056
2017-06-05T05:32:30.748Z,12676
2017-06-05T05:33:42.673Z,12372
2017-06-05T05:34:55.219Z,12004
2017-06-05T05:36:07.761Z,12148
2017-06-05T05:37:20.289Z,12236
2017-06-05T05:38:32.527Z,12168
2017-06-05T05:39:44.752Z,12100
2017-06-05T05:40:56.689Z,11848
2017-06-05T05:42:08.944Z,11648
2017-06-05T05:43:21.502Z,11396
2017-06-05T05:44:33.733Z,11104
2017-06-05T05:45:46.277Z,11040
2017-06-05T05:46:58.527Z,11312
2017-06-05T05:48:11.087Z,11804
2017-06-05T05:49:23.617Z,12296
2017-06-05T05:50:36.142Z,13108
2017-06-05T05:51:48.654Z,13608
2017-06-05T05:53:00.879Z,13604
2017-06-05T05:54:13.399Z,13336
2017-06-05T05:55:25.338Z,13464
2017-06-05T05:56:37.866Z,14460
2017-06-05T05:57:50.112Z,16060
2017-06-05T05:59:02.611Z,18240
2017-06-05T06:00:15.180Z,19872
2017-06-05T06:01:27.703Z,21088
2017-06-05T06:02:39.949Z,21408
2017-06-05T06:03:52.196Z,20832
2017-06-05T06:05:04.463Z,21184
2017-06-05T06:06:16.410Z,20800
2017-06-05T06:07:28.957Z,22144
2017-06-05T06:08:41.180Z,24384
2017-06-05T06:09:53.446Z,23872
2017-06-05T06:11:05.696Z,25056
2017-06-05T06:12:17.923Z,21440
2017-06-05T06:13:29.862Z,19680
2017-06-05T06:14:42.401Z,17664
2017-06-05T06:15:54.654Z,18464
2017-06-05T06:17:07.200Z,26528
2017-06-05T06:18:19.742Z,21600
2017-06-05T06:19:31.992Z,25920
2017-06-05T06:20:44.541Z,47968
2017-06-05T06:21:56.483Z,49792
2017-06-05T06:23:08.723Z,41152
2017-06-05T06:24:21.277Z,36160
2017-06-05T06:25:33.518Z,32800
2017-06-05T06:26:46.067Z,25888
2017-06-05T06:27:58.614Z,17376
2017-06-05T06:29:10.583Z,17760
2017-06-05T06:30:23.129Z,19264
2017-06-05T06:31:35.877Z,19200
2017-06-05T06:32:48.441Z,28736
2017-06-05T06:34:00.710Z,19168
2017-06-05T06:35:12.641Z,19808
2017-06-05T06:36:25.151Z,21280
2017-06-05T06:37:37.384Z,40352
2017-06-05T06:38:49.623Z,25024
2017-06-05T06:40:01.873Z,24608
2017-06-05T06:41:14.419Z,22336
2017-06-05T06:42:26.678Z,22880
2017-06-05T06:43:39.232Z,25376
2017-06-05T06:44:51.145Z,22944
2017-06-05T06:46:03.676Z,21472
2017-06-05T06:47:15.320Z,20448
2017-06-05T06:48:27.870Z,20992
2017-06-05T06:49:40.436Z,20800
2017-06-05T06:50:52.686Z,23040
2017-06-05T06:52:05.232Z,26336
2017-06-05T06:53:17.777Z,26752
2017-06-05T06:54:30.352Z,36704
2017-06-05T06:55:42.621Z,32256
2017-06-05T06:56:54.862Z,31264
2017-06-05T06:58:06.808Z,25152
2017-06-05T06:59:19.329Z,48928
2017-06-05T07:00:31.278Z,54272
2017-06-05T07:01:43.829Z,60384
2017-06-05T07:02:55.791Z,63136
2017-06-05T07:04:08.033Z,49984
2017-06-05T07:05:20.617Z,54912
2017-06-05T07:06:33.160Z,50976
2017-06-05T07:07:45.721Z,50816
2017-06-05T07:08:57.924Z,55200
2017-06-05T07:10:09.871Z,59488
2017-06-05T07:11:22.113Z,62272
2017-06-05T07:12:34.364Z,41568
2017-06-05T07:13:46.598Z,70624
2017-06-05T07:14:58.828Z,68320
2017-06-05T07:16:10.750Z,71072
2017-06-05T07:17:23.322Z,67104
2017-06-05T07:18:35.590Z,67520
2017-06-05T07:19:48.153Z,68192
2017-06-05T07:21:00.683Z,63136
2017-06-05T07:22:12.931Z,55840
2017-06-05T07:23:25.472Z,53792
2017-06-05T07:24:38.011Z,59648
2017-06-05T07:25:49.993Z,63072
2017-06-05T07:27:02.214Z,62272
2017-06-05T07:28:14.770Z,61632
2017-06-05T07:29:26.731Z,23456
2017-06-05T07:30:39.294Z,55520
2017-06-05T07:31:51.878Z,53248
2017-06-05T07:33:04.443Z,48768
2017-06-05T07:34:16.988Z,54976
2017-06-05T07:35:29.557Z,49504
2017-06-05T07:36:41.805Z,53632
2017-06-05T07:37:53.427Z,54944
2017-06-05T07:39:05.947Z,48032
2017-06-05T07:40:18.215Z,42624
2017-06-05T07:41:30.753Z,46560
2017-06-05T07:42:43.282Z,54784
2017-06-05T07:43:55.829Z,53856
2017-06-05T07:45:08.049Z,55296
2017-06-05T07:46:20.599Z,50016
2017-06-05T07:47:32.863Z,53184
2017-06-05T07:48:44.817Z,55488
2017-06-05T07:49:57.061Z,49888
2017-06-05T07:51:09.604Z,51616
2017-06-05T07:52:21.852Z,51328
2017-06-05T07:53:34.398Z,53952
2017-06-05T07:54:46.670Z,58016
2017-06-05T07:55:58.913Z,63040
2017-06-05T07:57:11.461Z,65248
2017-06-05T07:58:24.311Z,67648
2017-06-05T07:59:36.904Z,69728
2017-06-05T08:00:49.471Z,72256
2017-06-05T08:02:02.045Z,71040
2017-06-05T08:03:14.616Z,63232
2017-06-05T08:04:27.183Z,56832
2017-06-05T08:05:39.731Z,54784
2017-06-05T08:06:51.676Z,61600
2017-06-05T08:08:03.625Z,57184
2017-06-05T08:09:16.193Z,49632
2017-06-05T08:10:28.767Z,70336
2017-06-05T08:11:41.328Z,76384
2017-06-05T08:12:53.558Z,78720
2017-06-05T08:14:06.126Z,81920
2017-06-05T08:15:18.351Z,67168
2017-06-05T08:16:30.618Z,68832
2017-06-05T08:17:43.168Z,73856
2017-06-05T08:18:55.710Z,71360
2017-06-05T08:20:07.905Z,68672
2017-06-05T08:21:20.126Z,73536
2017-06-05T08:22:32.702Z,84704
2017-06-05T08:23:45.260Z,89088
2017-06-05T08:24:57.817Z,88480
2017-06-05T08:26:10.090Z,83840
2017-06-05T08:27:22.331Z,75904
2017-06-05T08:28:34.555Z,83776
2017-06-05T08:29:46.798Z,94432
2017-06-05T08:30:59.344Z,73728
2017-06-05T08:32:11.865Z,70496
2017-06-05T08:33:24.406Z,74400
2017-06-05T08:34:36.959Z,71072
2017-06-05T08:35:49.202Z,68704
2017-06-05T08:37:01.746Z,69408
2017-06-05T08:38:14.295Z,72096
2017-06-05T08:39:26.861Z,79136
2017-06-05T08:40:39.436Z,79456
2017-06-05T08:41:51.983Z,78752
2017-06-05T08:43:04.545Z,86592
2017-06-05T08:44:16.800Z,84768
2017-06-05T08:45:29.341Z,84448
2017-06-05T08:46:41.567Z,82816
2017-06-05T08:47:54.132Z,82528
2017-06-05T08:49:06.687Z,82336
2017-06-05T08:50:18.974Z,81600
2017-06-05T08:51:31.227Z,78304
2017-06-05T08:52:43.815Z,70752
2017-06-05T08:53:55.472Z,69120
2017-06-05T08:55:08.040Z,74240
2017-06-05T08:56:20.586Z,77600
2017-06-05T08:57:32.846Z,78048
2017-06-05T08:58:45.400Z,83904
2017-06-05T08:59:57.688Z,79872
2017-06-05T09:01:10.237Z,79616
2017-06-05T09:02:22.518Z,76160
2017-06-05T09:03:34.526Z,75136
2017-06-05T09:04:46.781Z,76832
2017-06-05T09:05:58.754Z,81600
2017-06-05T09:07:11.301Z,75328
2017-06-05T09:08:23.867Z,72736
2017-06-05T09:09:36.117Z,71296
2017-06-05T09:10:48.668Z,71680
2017-06-05T09:12:01.233Z,68576
2017-06-05T09:13:13.225Z,69824
2017-06-05T09:14:26.071Z,71072
2017-06-05T09:15:38.346Z,75456
2017-06-05T09:16:50.909Z,74112
2017-06-05T09:18:03.176Z,67520
2017-06-05T09:19:15.455Z,68480
2017-06-05T09:20:27.705Z,73888
2017-06-05T09:21:39.948Z,70688
2017-06-05T09:22:52.513Z,78272
2017-06-05T09:24:04.743Z,64736
2017-06-05T09:25:17.560Z,78240
2017-06-05T09:26:29.833Z,75616
2017-06-05T09:27:42.052Z,74528
2017-06-05T09:28:54.002Z,76384
2017-06-05T09:30:06.588Z,75776
2017-06-05T09:31:18.864Z,74080
2017-06-05T09:32:31.087Z,69792
2017-06-05T09:33:43.652Z,75648
2017-06-05T09:34:56.197Z,41056
2017-06-05T09:36:08.440Z,73472
2017-06-05T09:37:20.998Z,51712
2017-06-05T09:38:33.569Z,75840
2017-06-05T09:39:46.110Z,51232
2017-06-05T09:40:58.357Z,55136
2017-06-05T09:42:10.332Z,22688
2017-06-05T09:43:22.882Z,19360
2017-06-05T09:44:35.120Z,18292
2017-06-05T09:45:47.394Z,16956
2017-06-05T09:46:59.941Z,16612
2017-06-05T09:48:12.510Z,16504
2017-06-05T09:49:24.160Z,17992
2017-06-05T09:50:36.750Z,20256
2017-06-05T09:51:48.995Z,24192
2017-06-05T09:53:00.945Z,63616
2017-06-05T09:54:13.523Z,21056
2017-06-05T09:55:25.757Z,20352
2017-06-05T09:56:38.284Z,21888
2017-06-05T09:57:50.829Z,78240
2017-06-05T09:59:03.398Z,80576
2017-06-05T10:00:15.645Z,74912
2017-06-05T10:01:28.163Z,76320
2017-06-05T10:02:40.726Z,76192
2017-06-05T10:03:52.974Z,72512
2017-06-05T10:05:05.528Z,72672
2017-06-05T10:06:17.800Z,80000
2017-06-05T10:07:30.320Z,71296
2017-06-05T10:08:42.567Z,75680
2017-06-05T10:09:55.112Z,83136
2017-06-05T10:11:07.658Z,51008
2017-06-05T10:12:19.926Z,35968
2017-06-05T10:13:32.181Z,80992
2017-06-05T10:14:44.746Z,79872
2017-06-05T10:15:56.994Z,82304
2017-06-05T10:17:09.237Z,78208
2017-06-05T10:18:21.205Z,71104
2017-06-05T10:19:33.471Z,71936
2017-06-05T10:20:45.701Z,72224
2017-06-05T10:21:58.236Z,78176
2017-06-05T10:23:10.809Z,77312
2017-06-05T10:24:23.060Z,75136
2017-06-05T10:25:35.630Z,84192
2017-06-05T10:26:47.880Z,79296
2017-06-05T10:28:00.439Z,76704
2017-06-05T10:29:13.017Z,79936
2017-06-05T10:30:25.606Z,80128
2017-06-05T10:31:38.137Z,80128
2017-06-05T10:32:50.660Z,80000
2017-06-05T10:34:03.207Z,76096
2017-06-05T10:35:15.468Z,39456
2017-06-05T10:36:27.997Z,34784
2017-06-05T10:37:40.583Z,78784
2017-06-05T10:38:53.116Z,75584
2017-06-05T10:40:05.659Z,74272
2017-06-05T10:41:18.223Z,77952
2017-06-05T10:42:30.774Z,77760
2017-06-05T10:43:43.344Z,80544
2017-06-05T10:44:55.915Z,75904
2017-06-05T10:46:08.165Z,80544
2017-06-05T10:47:20.736Z,72704
2017-06-05T10:48:33.004Z,79072
2017-06-05T10:49:45.226Z,79712
2017-06-05T10:50:57.195Z,75360
2017-06-05T10:52:09.744Z,73024
2017-06-05T10:53:22.317Z,66752
2017-06-05T10:54:34.578Z,41152
2017-06-05T10:55:47.154Z,58816
2017-06-05T10:56:59.404Z,33344
2017-06-05T10:58:11.948Z,63200
2017-06-05T10:59:24.516Z,73920
2017-06-05T11:00:37.062Z,79968
2017-06-05T11:01:49.632Z,75200
2017-06-05T11:03:02.431Z,78496
2017-06-05T11:04:14.417Z,40608
2017-06-05T11:05:26.373Z,46848
2017-06-05T11:06:38.921Z,26592
2017-06-05T11:07:51.465Z,26848
2017-06-05T11:09:03.711Z,37888
2017-06-05T11:10:15.654Z,36672
2017-06-05T11:11:28.203Z,29600
2017-06-05T11:12:40.749Z,34016
2017-06-05T11:13:53.317Z,35008
2017-06-05T11:15:05.865Z,30368
2017-06-05T11:16:18.431Z,65536
2017-06-05T11:17:31.008Z,81312
2017-06-05T11:18:43.256Z,48672
2017-06-05T11:19:55.542Z,57792
2017-06-05T11:21:08.072Z,80640
2017-06-05T11:22:20.314Z,75776
2017-06-05T11:23:32.880Z,76864
2017-06-05T11:24:44.837Z,56320
2017-06-05T11:25:57.401Z,39936
2017-06-05T11:27:09.947Z,73760
2017-06-05T11:28:22.469Z,79840
2017-06-05T11:29:34.992Z,33984
2017-06-05T11:30:47.536Z,30560
2017-06-05T11:32:00.056Z,28512
2017-06-05T11:33:12.647Z,34048
2017-06-05T11:34:25.229Z,38272
2017-06-05T11:35:37.769Z,70496
2017-06-05T11:36:50.314Z,45472
2017-06-05T11:38:02.902Z,31936
2017-06-05T11:39:15.160Z,30752
2017-06-05T11:40:27.432Z,50112
2017-06-05T11:41:39.979Z,50304
2017-06-05T11:42:52.215Z,42528
2017-06-05T11:44:04.790Z,36896
2017-06-05T11:45:17.353Z,31712
2017-06-05T11:46:29.910Z,28704
2017-06-05T11:47:42.455Z,26464
2017-06-05T11:48:54.726Z,25536
2017-06-05T11:50:07.273Z,27488
2017-06-05T11:51:19.857Z,29312
2017-06-05T11:52:32.418Z,33952
2017-06-05T11:53:44.973Z,27616
2017-06-05T11:54:57.232Z,25152
2017-06-05T11:56:09.480Z,25280
2017-06-05T11:57:21.750Z,26688
2017-06-05T11:58:34.311Z,31296
2017-06-05T11:59:46.536Z,26304
2017-06-05T12:00:59.062Z,30336
2017-06-05T12:02:10.703Z,51616
2017-06-05T12:03:23.274Z,58432
2017-06-05T12:04:35.825Z,34336
2017-06-05T12:05:48.395Z,58112
2017-06-05T12:07:00.937Z,51968
2017-06-05T12:08:12.863Z,29984
2017-06-05T12:09:25.429Z,47968
2017-06-05T12:10:37.974Z,44352
2017-06-05T12:11:50.221Z,28448
2017-06-05T12:13:02.759Z,27744
2017-06-05T12:14:15.017Z,26848
2017-06-05T12:15:27.579Z,27840
2017-06-05T12:16:39.833Z,32384
2017-06-05T12:17:52.402Z,27424
2017-06-05T12:19:04.953Z,31712
2017-06-05T12:20:17.509Z,29984
2017-06-05T12:21:30.059Z,58848
2017-06-05T12:22:41.990Z,55136
2017-06-05T12:23:54.249Z,59936
2017-06-05T12:25:06.475Z,46304
2017-06-05T12:26:18.100Z,50240
2017-06-05T12:27:30.685Z,52768
2017-06-05T12:28:43.242Z,49120
2017-06-05T12:29:55.763Z,54496
2017-06-05T12:31:08.008Z,61600
2017-06-05T12:32:20.282Z,64512
2017-06-05T12:33:32.864Z,58496
2017-06-05T12:34:45.118Z,53024
2017-06-05T12:35:57.655Z,67424
2017-06-05T12:37:09.910Z,65664
2017-06-05T12:38:22.148Z,62496
2017-06-05T12:39:34.680Z,52640
2017-06-05T12:40:47.540Z,57408
2017-06-05T12:41:59.786Z,63168
2017-06-05T12:43:12.367Z,58880
2017-06-05T12:44:24.613Z,52704
2017-06-05T12:45:36.885Z,51520
2017-06-05T12:46:49.158Z,55232
2017-06-05T12:48:01.703Z,67744
2017-06-05T12:49:13.673Z,69792
2017-06-05T12:50:25.936Z,71488
2017-06-05T12:51:38.504Z,47552
2017-06-05T12:52:50.777Z,53344
2017-06-05T12:54:03.348Z,45536
2017-06-05T12:55:15.599Z,48672
2017-06-05T12:56:28.144Z,63872
2017-06-05T12:57:40.370Z,82656
2017-06-05T12:58:52.918Z,82624
2017-06-05T13:00:05.484Z,82144
2017-06-05T13:01:17.403Z,81952
2017-06-05T13:02:29.891Z,68768
2017-06-05T13:03:42.436Z,22368
2017-06-05T13:04:54.395Z,20992
2017-06-05T13:06:06.641Z,18624
2017-06-05T13:07:19.186Z,17348
2017-06-05T13:08:31.732Z,17300
2017-06-05T13:09:44.275Z,18336
2017-06-05T13:10:56.516Z,21728
2017-06-05T13:12:09.066Z,20896
2017-06-05T13:13:21.590Z,20832
2017-06-05T13:14:33.880Z,19232
2017-06-05T13:15:46.421Z,17408
2017-06-05T13:16:58.978Z,16336
2017-06-05T13:18:11.546Z,16640
2017-06-05T13:19:23.766Z,18720
2017-06-05T13:20:36.312Z,23200
2017-06-05T13:21:48.858Z,29504
2017-06-05T13:23:01.404Z,33472
2017-06-05T13:24:13.942Z,48192
2017-06-05T13:25:26.495Z,60352
2017-06-05T13:26:38.744Z,41600
2017-06-05T13:27:50.984Z,36032
2017-06-05T13:29:03.538Z,36160
2017-06-05T13:30:15.785Z,32480
2017-06-05T13:31:28.330Z,25088
2017-06-05T13:32:40.614Z,28960
2017-06-05T13:33:53.146Z,48256
2017-06-05T13:35:05.088Z,27712
2017-06-05T13:36:17.055Z,43840
2017-06-05T13:37:29.605Z,44320
2017-06-05T13:38:42.146Z,31616
2017-06-05T13:39:54.682Z,33504
2017-06-05T13:41:07.235Z,59712
2017-06-05T13:42:19.181Z,60544
2017-06-05T13:43:31.715Z,62656
2017-06-05T13:44:44.291Z,60064
2017-06-05T13:45:56.854Z,58400
2017-06-05T13:47:09.415Z,51552
2017-06-05T13:48:21.977Z,46368
2017-06-05T13:49:34.519Z,43744
2017-06-05T13:50:46.760Z,27616
2017-06-05T13:51:59.284Z,19040
2017-06-05T13:53:11.860Z,20160
2017-06-05T13:54:24.440Z,38720
2017-06-05T13:55:36.697Z,57696
2017-06-05T13:56:49.490Z,58304
2017-06-05T13:58:01.739Z,35616
2017-06-05T13:59:14.014Z,26368
2017-06-05T14:00:26.281Z,17952
2017-06-05T14:01:38.542Z,16424
2017-06-05T14:02:50.797Z,16260
2017-06-05T14:04:03.361Z,16668
2017-06-05T14:05:15.604Z,16060
2017-06-05T14:06:28.160Z,14680
2017-06-05T14:07:40.724Z,14044
2017-06-05T14:08:53.258Z,14928
2017-06-05T14:10:05.537Z,17312
2017-06-05T14:11:18.083Z,52192
2017-06-05T14:12:30.315Z,56000
2017-06-05T14:13:42.879Z,39872
2017-06-05T14:14:55.400Z,22944
2017-06-05T14:16:07.323Z,20256
2017-06-05T14:17:19.241Z,19008
2017-06-05T14:18:31.768Z,18656
2017-06-05T14:19:44.012Z,17984
2017-06-05T14:20:56.576Z,18144
2017-06-05T14:22:09.134Z,18784
2017-06-05T14:23:21.675Z,20096
2017-06-05T14:24:33.917Z,37056
2017-06-05T14:25:46.442Z,20448
2017-06-05T14:26:58.689Z,18944
2017-06-05T14:28:10.337Z,17224
2017-06-05T14:29:22.923Z,15764
2017-06-05T14:30:35.493Z,14364
2017-06-05T14:31:48.044Z,13104
2017-06-05T14:33:00.575Z,12596
2017-06-05T14:34:12.842Z,12656
2017-06-05T14:35:25.409Z,13108
2017-06-05T14:36:37.951Z,14260
2017-06-05T14:37:50.231Z,16028
2017-06-05T14:39:02.819Z,18400
2017-06-05T14:40:14.771Z,19744
2017-06-05T14:41:27.015Z,21280
2017-06-05T14:42:39.544Z,22624
2017-06-05T14:43:51.486Z,43456
2017-06-05T14:45:04.005Z,28512
2017-06-05T14:46:16.543Z,19168
2017-06-05T14:47:28.838Z,17296
2017-06-05T14:48:40.774Z,16688
2017-06-05T14:49:53.318Z,15976
2017-06-05T14:51:05.582Z,17152
2017-06-05T14:52:18.106Z,16360
2017-06-05T14:53:30.651Z,15796
2017-06-05T14:54:42.898Z,15860
2017-06-05T14:55:55.440Z,15204
2017-06-05T14:57:07.985Z,13608
2017-06-05T14:58:20.224Z,12300
2017-06-05T14:59:31.833Z,12164
2017-06-05T15:00:44.373Z,12588
2017-06-05T15:01:56.895Z,11896
2017-06-05T15:03:09.158Z,11284
2017-06-05T15:04:21.111Z,10544
2017-06-05T15:05:33.059Z,9756
2017-06-05T15:06:44.983Z,9272
2017-06-05T15:07:57.542Z,9224
2017-06-05T15:09:09.794Z,9356
2017-06-05T15:10:22.023Z,8908
2017-06-05T15:11:33.980Z,9156
2017-06-05T15:12:46.166Z,9572
2017-06-05T15:13:58.733Z,10276
2017-06-05T15:15:10.979Z,11168
2017-06-05T15:16:23.220Z,11208
2017-06-05T15:17:35.469Z,10568
2017-06-05T15:18:47.743Z,9744
2017-06-05T15:20:00.261Z,9168
2017-06-05T15:21:12.213Z,8236
2017-06-05T15:22:24.496Z,7528
2017-06-05T15:23:36.716Z,6736
2017-06-05T15:24:48.063Z,6088
2017-06-05T15:26:00.314Z,5812
2017-06-05T15:27:12.551Z,5820
2017-06-05T15:28:24.814Z,5720
2017-06-05T15:29:37.080Z,5212
2017-06-05T15:30:49.614Z,4584
2017-06-05T15:32:02.160Z,4152
2017-06-05T15:33:14.692Z,4040
2017-06-05T15:34:27.238Z,4084
2017-06-05T15:35:39.455Z,4160
2017-06-05T15:36:51.980Z,4136
2017-06-05T15:38:03.922Z,3928
2017-06-05T15:39:15.843Z,3832
2017-06-05T15:40:28.364Z,3888
2017-06-05T15:41:40.889Z,4012
2017-06-05T15:42:53.149Z,4332
2017-06-05T15:44:05.701Z,4920
2017-06-05T15:45:17.626Z,5596
2017-06-05T15:46:30.172Z,6216
2017-06-05T15:47:42.114Z,6788
2017-06-05T15:48:54.663Z,7184
2017-06-05T15:50:06.936Z,7184
2017-06-05T15:51:19.202Z,6904
2017-06-05T15:52:31.451Z,6776
2017-06-05T15:53:44.037Z,6732
2017-06-05T15:54:56.593Z,6588
2017-06-05T15:56:09.139Z,6352
2017-06-05T15:57:21.662Z,5984
2017-06-05T15:58:34.219Z,5448
2017-06-05T15:59:46.749Z,4772